createdAt,value
2023-05-02T00:01:43.703Z,55.84
2023-05-02T00:04:16.475Z,55.96
2023-05-02T00:06:49.745Z,56.02
2023-05-02T00:09:22.516Z,56.05
2023-05-02T00:11:54.435Z,56.08
2023-05-02T00:14:25.892Z,56.01
2023-05-02T00:16:57.823Z,55.99
2023-05-02T00:19:29.069Z,56.00
2023-05-02T00:22:02.520Z,56.23
2023-05-02T00:24:35.737Z,56.32
2023-05-02T00:27:08.510Z,56.13
2023-05-02T00:29:40.981Z,56.18
2023-05-02T00:32:14.254Z,56.13
2023-05-02T00:34:47.803Z,56.16
2023-05-02T00:37:20.109Z,56.17
2023-05-02T00:39:51.840Z,56.21
2023-05-02T00:42:28.936Z,56.38
2023-05-02T00:45:01.074Z,56.27
2023-05-02T00:47:34.577Z,56.29
2023-05-02T00:50:10.966Z,56.36
2023-05-02T00:52:42.674Z,56.20
2023-05-02T00:55:14.407Z,56.35
2023-05-02T00:57:49.675Z,56.30
2023-05-02T01:00:21.158Z,56.21
2023-05-02T01:03:01.662Z,56.27
2023-05-02T01:05:43.998Z,56.29
2023-05-02T01:08:28.294Z,56.49
2023-05-02T01:11:12.613Z,56.44
2023-05-02T01:13:47.522Z,56.65
2023-05-02T01:16:21.726Z,56.69
2023-05-02T01:18:55.191Z,56.73
2023-05-02T01:21:29.053Z,56.80
2023-05-02T01:24:07.571Z,56.80
2023-05-02T01:26:48.470Z,56.93
2023-05-02T01:29:22.082Z,57.06
2023-05-02T01:31:58.357Z,57.12
2023-05-02T01:34:32.305Z,57.20
2023-05-02T01:37:05.181Z,57.23
2023-05-02T01:39:40.850Z,57.34
2023-05-02T01:42:13.282Z,57.39
2023-05-02T01:44:45.445Z,57.50
2023-05-02T01:47:18.021Z,57.54
2023-05-02T01:49:50.360Z,57.68
2023-05-02T01:52:25.326Z,57.68
2023-05-02T01:55:02.339Z,58.00
2023-05-02T01:57:39.118Z,57.99
2023-05-02T02:00:17.587Z,58.24
2023-05-02T02:02:52.346Z,58.32
2023-05-02T02:05:26.025Z,58.49
2023-05-02T02:08:00.477Z,58.65
2023-05-02T02:10:38.894Z,58.53
2023-05-02T02:13:18.795Z,58.62
2023-05-02T02:15:53.635Z,58.86
2023-05-02T02:18:28.806Z,58.83
2023-05-02T02:21:02.623Z,59.26
2023-05-02T02:23:38.236Z,59.03
2023-05-02T02:26:13.288Z,59.19
2023-05-02T02:28:45.769Z,59.20
2023-05-02T02:31:21.742Z,59.51
2023-05-02T02:33:54.993Z,59.47
2023-05-02T02:36:35.482Z,59.60
2023-05-02T02:39:25.680Z,59.66
2023-05-02T02:42:09.094Z,59.85
2023-05-02T02:44:48.600Z,59.94
2023-05-02T02:47:28.541Z,60.00
2023-05-02T02:50:12.572Z,60.13
2023-05-02T02:52:53.546Z,60.05
2023-05-02T02:55:37.387Z,60.15
2023-05-02T02:58:21.497Z,60.28
2023-05-02T03:00:53.436Z,60.38
2023-05-02T03:03:29.403Z,60.50
2023-05-02T03:06:04.620Z,60.44
2023-05-02T03:08:43.336Z,60.62
2023-05-02T03:11:19.031Z,60.68
2023-05-02T03:13:54.561Z,60.62
2023-05-02T03:16:44.646Z,60.73
2023-05-02T03:19:18.157Z,60.84
2023-05-02T03:21:49.802Z,60.91
2023-05-02T03:24:23.510Z,60.74
2023-05-02T03:26:59.794Z,60.69
2023-05-02T03:29:35.364Z,60.71
2023-05-02T03:32:09.912Z,60.60
2023-05-02T03:34:42.427Z,60.65
2023-05-02T03:37:13.384Z,60.66
2023-05-02T03:39:44.711Z,60.52
2023-05-02T03:42:16.080Z,60.42
2023-05-02T03:44:52.732Z,60.37
2023-05-02T03:47:26.330Z,60.36
2023-05-02T03:49:58.479Z,60.32
2023-05-02T03:52:30.757Z,60.46
2023-05-02T03:55:03.481Z,60.48
2023-05-02T03:57:37.526Z,60.37
2023-05-02T04:00:16.263Z,60.33
2023-05-02T04:02:52.841Z,60.47
2023-05-02T04:05:29.682Z,60.49
2023-05-02T04:08:03.795Z,60.33
2023-05-02T04:10:37.480Z,60.39
2023-05-02T04:13:13.751Z,60.49
2023-05-02T04:15:49.287Z,60.50
2023-05-02T04:18:26.457Z,60.37
2023-05-02T04:20:57.935Z,60.43
2023-05-02T04:23:30.198Z,60.42
2023-05-02T04:26:06.082Z,60.63
2023-05-02T04:28:53.332Z,60.79
2023-05-02T04:31:25.462Z,60.81
2023-05-02T04:33:57.840Z,61.18
2023-05-02T04:36:33.103Z,61.70
2023-05-02T04:39:07.657Z,61.45
2023-05-02T04:41:43.092Z,61.37
2023-05-02T04:44:14.702Z,61.42
2023-05-02T04:46:49.425Z,61.68
2023-05-02T04:49:22.820Z,61.73
2023-05-02T04:51:57.740Z,61.75
2023-05-02T04:54:30.580Z,61.61
2023-05-02T04:57:03.152Z,61.75
2023-05-02T04:59:40.588Z,62.04
2023-05-02T05:02:13.254Z,62.22
2023-05-02T05:04:45.454Z,62.37
2023-05-02T05:07:18.821Z,62.08
2023-05-02T05:09:54.023Z,62.07
2023-05-02T05:12:29.355Z,61.97
2023-05-02T05:15:00.198Z,62.00
2023-05-02T05:17:31.679Z,61.83
2023-05-02T05:20:08.953Z,61.70
2023-05-02T05:22:43.904Z,62.14
2023-05-02T05:25:16.472Z,62.18
2023-05-02T05:27:56.795Z,62.20
2023-05-02T05:30:30.324Z,62.37
2023-05-02T05:33:03.793Z,62.21
2023-05-02T05:35:39.634Z,62.50
2023-05-02T05:38:10.795Z,62.63
2023-05-02T05:40:45.903Z,62.95
2023-05-02T05:43:17.011Z,62.74
2023-05-02T05:45:50.811Z,62.58
2023-05-02T05:48:23.332Z,62.45
2023-05-02T05:50:56.486Z,62.44
2023-05-02T05:53:31.630Z,62.77
2023-05-02T05:56:11.433Z,62.79
2023-05-02T05:58:46.860Z,62.72
2023-05-02T06:01:19.007Z,62.71
2023-05-02T06:03:51.927Z,62.76
2023-05-02T06:06:22.075Z,63.12
2023-05-02T06:08:53.571Z,63.44
2023-05-02T06:11:26.677Z,63.78
2023-05-02T06:14:00.230Z,64.24
2023-05-02T06:16:34.067Z,64.52
2023-05-02T06:19:05.516Z,64.77
2023-05-02T06:21:38.060Z,65.30
2023-05-02T06:24:10.191Z,65.50
2023-05-02T06:26:43.648Z,65.46
2023-05-02T06:29:15.309Z,65.54
2023-05-02T06:31:44.942Z,65.84
2023-05-02T06:34:16.263Z,65.97
2023-05-02T06:36:48.433Z,66.13
2023-05-02T06:39:18.675Z,66.19
2023-05-02T06:41:50.895Z,65.97
2023-05-02T06:44:25.908Z,66.42
2023-05-02T06:46:59.261Z,66.34
2023-05-02T06:49:31.029Z,66.46
2023-05-02T06:52:02.399Z,66.65
2023-05-02T06:54:35.359Z,65.90
2023-05-02T06:57:08.606Z,66.29
2023-05-02T06:59:41.169Z,66.29
2023-05-02T07:02:12.307Z,66.32
2023-05-02T07:04:44.953Z,66.32
2023-05-02T07:07:19.096Z,67.02
2023-05-02T07:09:52.580Z,67.39
2023-05-02T07:12:24.104Z,67.62
2023-05-02T07:14:56.473Z,67.98
2023-05-02T07:17:29.288Z,68.36
2023-05-02T07:20:04.158Z,68.71
2023-05-02T07:22:38.588Z,68.56
2023-05-02T07:25:13.342Z,68.62
2023-05-02T07:27:44.217Z,68.87
2023-05-02T07:30:21.392Z,69.32
2023-05-02T07:32:54.304Z,69.40
2023-05-02T07:35:26.669Z,69.47
2023-05-02T07:37:58.585Z,69.62
2023-05-02T07:40:32.408Z,69.48
2023-05-02T07:43:06.240Z,69.30
2023-05-02T07:45:39.778Z,69.46
2023-05-02T07:48:12.304Z,69.54
2023-05-02T07:50:47.277Z,69.87
2023-05-02T07:53:19.700Z,69.93
2023-05-02T07:55:51.018Z,70.09
2023-05-02T07:58:25.263Z,69.99
2023-05-02T08:00:58.682Z,70.16
2023-05-02T08:03:31.203Z,70.13
2023-05-02T08:06:05.589Z,70.31
2023-05-02T08:08:38.424Z,70.43
2023-05-02T08:11:09.377Z,70.60
2023-05-02T08:13:40.332Z,70.53
2023-05-02T08:16:15.841Z,70.43
2023-05-02T08:18:49.705Z,70.79
2023-05-02T08:21:23.490Z,70.64
2023-05-02T08:23:59.980Z,70.73
2023-05-02T08:26:34.612Z,70.85
2023-05-02T08:29:11.465Z,70.97
2023-05-02T08:31:45.095Z,71.01
2023-05-02T08:34:23.322Z,71.16
2023-05-02T08:37:08.852Z,71.13
2023-05-02T08:39:40.972Z,70.94
2023-05-02T08:42:13.087Z,70.70
2023-05-02T08:44:46.273Z,70.51
2023-05-02T08:47:20.713Z,70.59
2023-05-02T08:49:56.326Z,70.56
2023-05-02T08:52:31.080Z,69.91
2023-05-02T08:55:07.089Z,69.54
2023-05-02T08:57:40.398Z,69.61
2023-05-02T09:00:14.848Z,69.04
2023-05-02T09:03:09.571Z,68.59
2023-05-02T09:05:44.323Z,67.65
2023-05-02T09:08:24.811Z,67.53
2023-05-02T09:11:01.822Z,66.52
2023-05-02T09:13:36.917Z,66.42
2023-05-02T09:16:13.059Z,65.70
2023-05-02T09:18:48.584Z,65.25
2023-05-02T09:21:22.038Z,64.76
2023-05-02T09:23:59.673Z,64.99
2023-05-02T09:26:34.013Z,64.08
2023-05-02T09:29:08.318Z,63.05
2023-05-02T09:34:22.532Z,63.14
2023-05-02T09:36:54.968Z,62.75
2023-05-02T09:39:30.111Z,62.11
2023-05-02T09:42:03.802Z,61.95
2023-05-02T09:44:41.981Z,61.40
2023-05-02T09:47:26.594Z,60.88
2023-05-02T09:49:59.755Z,60.38
2023-05-02T09:52:35.923Z,59.63
2023-05-02T09:55:23.578Z,58.88
2023-05-02T09:57:56.605Z,59.03
2023-05-02T10:00:45.862Z,58.27
2023-05-02T10:03:18.953Z,58.17
2023-05-02T10:05:55.204Z,56.81
2023-05-02T10:08:34.654Z,55.07
2023-05-02T10:11:11.179Z,53.71
2023-05-02T10:13:48.302Z,53.07
2023-05-02T10:16:30.338Z,53.09
2023-05-02T10:19:10.676Z,52.86
2023-05-02T10:21:45.170Z,52.51
2023-05-02T10:24:22.181Z,51.62
2023-05-02T10:26:54.928Z,51.07
2023-05-02T10:29:29.659Z,50.16
2023-05-02T10:32:05.123Z,50.10
2023-05-02T10:34:37.583Z,49.54
2023-05-02T10:37:10.096Z,49.42
2023-05-02T10:39:43.074Z,50.00
2023-05-02T10:42:19.605Z,50.24
2023-05-02T10:44:52.402Z,50.80
2023-05-02T10:47:23.115Z,50.85
2023-05-02T10:49:56.397Z,50.67
2023-05-02T10:52:34.458Z,50.65
2023-05-02T10:55:22.605Z,50.66
2023-05-02T10:58:28.680Z,50.21
2023-05-02T11:01:40.228Z,48.87
2023-05-02T11:04:13.400Z,48.54
2023-05-02T11:07:16.594Z,48.45
2023-05-02T11:09:50.096Z,47.50
2023-05-02T11:12:48.778Z,47.29
2023-05-02T11:15:53.792Z,46.85
2023-05-02T11:18:27.645Z,47.01
2023-05-02T11:21:29.547Z,46.98
2023-05-02T11:24:40.838Z,47.17
2023-05-02T11:27:44.205Z,47.37
2023-05-02T11:30:17.537Z,47.07
2023-05-02T11:33:17.504Z,47.03
2023-05-02T11:35:50.102Z,46.82
2023-05-02T11:38:24.883Z,46.80
2023-05-02T11:41:00.194Z,46.70
2023-05-02T11:43:31.948Z,45.62
2023-05-02T11:46:07.842Z,44.74
2023-05-02T11:48:40.581Z,44.16
2023-05-02T11:51:15.738Z,44.24
2023-05-02T11:53:48.575Z,44.19
2023-05-02T11:56:26.723Z,43.80
2023-05-02T11:59:04.236Z,43.67
2023-05-02T12:01:38.111Z,43.62
2023-05-02T12:04:11.702Z,43.88
2023-05-02T12:06:57.018Z,43.75
2023-05-02T12:09:28.224Z,43.95
2023-05-02T12:12:02.280Z,43.90
2023-05-02T12:14:36.276Z,43.63
2023-05-02T12:17:07.422Z,43.03
2023-05-02T12:19:38.975Z,42.72
2023-05-02T12:22:13.457Z,42.47
2023-05-02T12:24:44.968Z,42.55
2023-05-02T12:27:19.828Z,42.64
2023-05-02T12:29:53.327Z,42.88
2023-05-02T12:32:39.349Z,42.99
2023-05-02T12:35:23.538Z,42.91
2023-05-02T12:37:55.300Z,43.18
2023-05-02T12:40:28.582Z,43.93
2023-05-02T12:43:05.645Z,44.13
2023-05-02T12:45:38.709Z,43.80
2023-05-02T12:48:26.687Z,43.62
2023-05-02T12:50:58.289Z,43.51
2023-05-02T12:53:47.507Z,43.67
2023-05-02T12:56:21.388Z,43.63
2023-05-02T12:58:54.141Z,43.33
2023-05-02T13:01:26.412Z,43.08
2023-05-02T13:03:59.602Z,43.39
2023-05-02T13:06:31.950Z,43.68
2023-05-02T13:09:06.158Z,43.56
2023-05-02T13:11:43.300Z,43.20
2023-05-02T13:14:15.201Z,43.49
2023-05-02T13:16:49.881Z,43.43
2023-05-02T13:19:21.645Z,43.35
2023-05-02T13:21:53.175Z,43.55
2023-05-02T13:24:29.017Z,43.47
2023-05-02T13:27:03.685Z,43.51
2023-05-02T13:29:36.798Z,43.40
2023-05-02T13:32:12.995Z,43.46
2023-05-02T13:34:51.244Z,43.69
2023-05-02T13:37:29.366Z,43.36
2023-05-02T13:40:06.687Z,43.48
2023-05-02T13:42:40.706Z,43.18
2023-05-02T13:45:17.906Z,43.36
2023-05-02T13:47:52.577Z,43.17
2023-05-02T13:50:29.669Z,43.74
2023-05-02T13:53:04.029Z,45.15
2023-05-02T13:55:37.479Z,46.29
2023-05-02T13:58:10.461Z,47.27
2023-05-02T14:00:42.779Z,47.87
2023-05-02T14:03:15.066Z,48.20
2023-05-02T14:05:45.977Z,48.42
2023-05-02T14:08:18.858Z,48.89
2023-05-02T14:10:54.113Z,49.11
2023-05-02T14:13:30.696Z,49.13
2023-05-02T14:16:08.285Z,49.43
2023-05-02T14:18:41.121Z,49.56
2023-05-02T14:21:11.585Z,49.58
2023-05-02T14:23:45.183Z,49.25
2023-05-02T14:26:19.650Z,49.53
2023-05-02T14:28:53.408Z,49.93
2023-05-02T14:31:27.608Z,50.04
2023-05-02T14:33:59.828Z,50.52
2023-05-02T14:36:40.869Z,50.78
2023-05-02T14:39:17.511Z,51.20
2023-05-02T14:41:48.480Z,51.33
2023-05-02T14:44:20.288Z,51.60
2023-05-02T14:46:56.348Z,51.98
2023-05-02T14:49:31.072Z,51.94
2023-05-02T14:52:02.628Z,52.60
2023-05-02T14:54:42.223Z,52.63
2023-05-02T14:57:17.006Z,53.25
2023-05-02T14:59:52.090Z,53.07
2023-05-02T15:02:24.694Z,52.92
2023-05-02T15:04:58.257Z,52.78
2023-05-02T15:07:33.414Z,52.51
2023-05-02T15:10:06.809Z,52.64
2023-05-02T15:12:39.730Z,52.83
2023-05-02T15:15:15.084Z,53.19
2023-05-02T15:17:49.197Z,52.91
2023-05-02T15:20:23.449Z,53.07
2023-05-02T15:22:54.947Z,53.43
2023-05-02T15:25:28.507Z,53.32
2023-05-02T15:28:02.143Z,53.33
2023-05-02T15:30:34.704Z,53.69
2023-05-02T15:33:11.093Z,53.80
2023-05-02T15:35:51.126Z,53.93
2023-05-02T15:38:27.506Z,54.26
2023-05-02T15:41:03.768Z,54.48
2023-05-02T15:43:38.941Z,54.52
2023-05-02T15:46:13.196Z,54.40
2023-05-02T15:48:46.524Z,54.59
2023-05-02T15:51:27.906Z,54.83
2023-05-02T15:54:00.239Z,55.09
2023-05-02T15:56:36.032Z,54.96
2023-05-02T15:59:08.300Z,55.22
2023-05-02T16:01:42.758Z,55.57
2023-05-02T16:04:15.728Z,55.80
2023-05-02T16:06:48.016Z,55.94
2023-05-02T16:09:21.717Z,55.78
2023-05-02T16:11:55.578Z,55.81
2023-05-02T16:14:28.546Z,55.77
2023-05-02T16:17:03.088Z,55.50
2023-05-02T16:19:37.263Z,55.69
2023-05-02T16:22:09.129Z,55.69
2023-05-02T16:24:41.393Z,55.78
2023-05-02T16:27:13.984Z,55.63
2023-05-02T16:29:46.566Z,55.79
2023-05-02T16:32:22.679Z,55.72
2023-05-02T16:34:54.780Z,55.99
2023-05-02T16:37:26.467Z,56.20
2023-05-02T16:40:01.657Z,56.49
2023-05-02T16:42:35.366Z,56.27
2023-05-02T16:45:12.764Z,56.09
2023-05-02T16:47:45.471Z,56.05
2023-05-02T16:50:19.693Z,56.29
2023-05-02T16:52:52.225Z,56.11
2023-05-02T16:55:26.172Z,55.63
2023-05-02T16:57:57.104Z,55.53
2023-05-02T17:00:28.629Z,55.82
2023-05-02T17:03:03.739Z,55.73
2023-05-02T17:05:37.664Z,55.54
2023-05-02T17:08:11.034Z,55.70
2023-05-02T17:10:51.670Z,56.15
2023-05-02T17:13:25.094Z,55.99
2023-05-02T17:15:57.777Z,56.15
2023-05-02T17:18:33.935Z,56.38
2023-05-02T17:21:08.532Z,56.37
2023-05-02T17:23:41.618Z,56.45
2023-05-02T17:26:17.369Z,56.52
2023-05-02T17:28:53.626Z,56.62
2023-05-02T17:31:27.445Z,56.57
2023-05-02T17:34:00.378Z,56.52
2023-05-02T17:36:33.074Z,56.40
2023-05-02T17:39:05.218Z,56.45
2023-05-02T17:41:42.054Z,56.51
2023-05-02T17:44:16.005Z,56.55
2023-05-02T17:46:47.550Z,56.68
2023-05-02T17:49:19.857Z,56.87
2023-05-02T17:51:53.212Z,56.81
2023-05-02T17:54:28.555Z,56.94
2023-05-02T17:57:00.338Z,57.04
2023-05-02T17:59:33.122Z,57.26
2023-05-02T18:02:04.700Z,57.32
2023-05-02T18:04:37.541Z,57.08
2023-05-02T18:07:10.123Z,57.11
2023-05-02T18:09:43.364Z,56.99
2023-05-02T18:12:16.401Z,57.27
2023-05-02T18:14:47.553Z,57.22
2023-05-02T18:17:20.233Z,57.07
2023-05-02T18:19:51.860Z,56.90
2023-05-02T18:22:23.964Z,56.89
2023-05-02T18:24:55.667Z,56.87
2023-05-02T18:27:29.078Z,56.89
2023-05-02T18:30:02.260Z,57.01
2023-05-02T18:32:36.078Z,57.12
2023-05-02T18:35:10.899Z,57.17
2023-05-02T18:37:43.735Z,57.13
2023-05-02T18:40:15.848Z,57.24
2023-05-02T18:42:50.247Z,57.45
2023-05-02T18:45:24.131Z,57.47
2023-05-02T18:47:56.641Z,57.57
2023-05-02T18:50:28.587Z,57.68
2023-05-02T18:53:01.668Z,57.57
2023-05-02T18:55:35.359Z,57.75
2023-05-02T18:58:07.118Z,57.97
2023-05-02T19:00:41.595Z,58.14
2023-05-02T19:03:13.769Z,58.29
2023-05-02T19:05:46.054Z,58.32
2023-05-02T19:08:16.890Z,58.45
2023-05-02T19:10:50.450Z,58.58
2023-05-02T19:13:27.048Z,58.82
2023-05-02T19:16:02.575Z,59.08
2023-05-02T19:18:39.957Z,59.14
2023-05-02T19:21:15.471Z,59.36
2023-05-02T19:23:53.114Z,59.31
2023-05-02T19:26:28.697Z,59.47
2023-05-02T19:29:00.856Z,59.36
2023-05-02T19:31:34.405Z,59.26
2023-05-02T19:34:09.637Z,59.23
2023-05-02T19:36:42.104Z,59.42
2023-05-02T19:39:14.631Z,59.33
2023-05-02T19:41:47.755Z,59.40
2023-05-02T19:44:20.906Z,59.45
2023-05-02T19:46:52.281Z,59.59
2023-05-02T19:49:26.587Z,59.54
2023-05-02T19:51:59.089Z,59.56
2023-05-02T19:54:33.320Z,59.68
2023-05-02T19:57:04.727Z,59.73
2023-05-02T19:59:37.063Z,59.65
2023-05-02T20:02:10.110Z,59.70
2023-05-02T20:04:45.530Z,59.71
2023-05-02T20:07:17.905Z,59.76
2023-05-02T20:09:50.806Z,59.87
2023-05-02T20:12:22.537Z,59.96
2023-05-02T20:14:55.065Z,59.83
2023-05-02T20:17:27.118Z,59.56
2023-05-02T20:20:02.517Z,59.46
2023-05-02T20:22:35.853Z,59.23
2023-05-02T20:25:12.316Z,59.05
2023-05-02T20:27:43.740Z,58.87
2023-05-02T20:30:17.546Z,58.65
2023-05-02T20:32:50.975Z,58.44
2023-05-02T20:35:22.697Z,58.46
2023-05-02T20:37:56.605Z,58.25
2023-05-02T20:40:29.080Z,58.13
2023-05-02T20:43:02.418Z,57.90
2023-05-02T20:45:35.621Z,57.72
2023-05-02T20:48:07.725Z,57.67
2023-05-02T20:50:38.632Z,57.86
2023-05-02T20:53:10.040Z,57.79
2023-05-02T20:55:42.534Z,57.85
2023-05-02T20:58:17.109Z,57.95
2023-05-02T21:00:51.813Z,58.02
2023-05-02T21:03:24.465Z,57.98
2023-05-02T21:05:59.609Z,57.82
2023-05-02T21:08:31.350Z,57.93
2023-05-02T21:11:04.974Z,57.85
2023-05-02T21:13:36.014Z,57.41
2023-05-02T21:16:16.050Z,57.40
2023-05-02T21:18:47.527Z,57.37
2023-05-02T21:21:17.778Z,57.36
2023-05-02T21:23:50.062Z,57.11
2023-05-02T21:26:21.794Z,57.17
2023-05-02T21:28:54.728Z,57.23
2023-05-02T21:31:24.717Z,57.16
2023-05-02T21:33:56.492Z,57.12
2023-05-02T21:36:29.496Z,56.97
2023-05-02T21:39:02.956Z,57.12
2023-05-02T21:41:35.553Z,57.21
2023-05-02T21:44:06.280Z,57.26
2023-05-02T21:46:41.570Z,57.30
2023-05-02T21:49:31.776Z,57.55
2023-05-02T21:52:03.678Z,57.69
2023-05-02T21:54:37.011Z,57.92
2023-05-02T21:57:09.889Z,58.29
2023-05-02T21:59:43.306Z,58.34
2023-05-02T22:02:14.763Z,58.62
2023-05-02T22:04:47.679Z,58.87
2023-05-02T22:07:20.424Z,59.19
2023-05-02T22:09:53.255Z,59.50
2023-05-02T22:12:28.097Z,59.72
2023-05-02T22:14:59.999Z,60.11
2023-05-02T22:17:34.958Z,60.50
2023-05-02T22:20:13.527Z,60.76
2023-05-02T22:22:47.867Z,61.40
2023-05-02T22:25:22.298Z,61.99
2023-05-02T22:27:54.564Z,62.58
2023-05-02T22:30:27.438Z,62.75
2023-05-02T22:33:00.066Z,62.91
2023-05-02T22:35:33.998Z,63.18
2023-05-02T22:38:06.605Z,63.26
2023-05-02T22:40:38.338Z,63.28
2023-05-02T22:43:09.340Z,63.33
2023-05-02T22:45:41.762Z,63.61
2023-05-02T22:48:14.705Z,63.63
2023-05-02T22:50:49.530Z,64.09
2023-05-02T22:53:23.074Z,64.08
2023-05-02T22:55:57.664Z,64.32
2023-05-02T22:58:30.775Z,64.55
2023-05-02T23:01:04.344Z,65.03
2023-05-02T23:03:37.690Z,65.43
2023-05-02T23:06:10.729Z,65.69
2023-05-02T23:08:44.402Z,65.78
2023-05-02T23:11:17.326Z,65.61
2023-05-02T23:13:49.615Z,65.72
2023-05-02T23:16:21.797Z,65.55
2023-05-02T23:18:56.141Z,65.40
2023-05-02T23:21:26.679Z,65.01
2023-05-02T23:23:59.226Z,64.67
2023-05-02T23:26:31.930Z,64.13
2023-05-02T23:29:05.853Z,63.88
2023-05-02T23:31:39.699Z,63.60
2023-05-02T23:34:12.462Z,63.51
2023-05-02T23:36:44.722Z,63.44
2023-05-02T23:39:17.705Z,63.34
2023-05-02T23:41:50.426Z,63.16
2023-05-02T23:44:20.556Z,63.15
2023-05-02T23:46:54.575Z,62.96
2023-05-02T23:49:30.191Z,62.92
2023-05-02T23:52:04.492Z,63.11
2023-05-02T23:54:39.953Z,63.28
2023-05-02T23:57:15.782Z,63.11
2023-05-02T23:59:48.167Z,62.73
